createdAt,value
2022-12-04T00:02:00.088Z,66.07
2022-12-04T00:04:28.535Z,65.80
2022-12-04T00:06:59.137Z,67.97
2022-12-04T00:09:27.828Z,63.73
2022-12-04T00:11:56.219Z,60.23
2022-12-04T00:14:24.496Z,63.67
2022-12-04T00:16:53.035Z,64.43
2022-12-04T00:19:22.759Z,61.73
2022-12-04T00:21:51.788Z,61.43
2022-12-04T00:24:21.598Z,57.50
2022-12-04T00:26:50.023Z,65.17
2022-12-04T00:29:19.056Z,58.57
2022-12-04T00:31:47.557Z,59.57
2022-12-04T00:34:15.919Z,54.93
2022-12-04T00:36:44.626Z,57.73
2022-12-04T00:39:13.601Z,54.70
2022-12-04T00:41:43.434Z,55.27
2022-12-04T00:44:11.815Z,53.93
2022-12-04T00:46:40.098Z,49.03
2022-12-04T00:49:08.473Z,53.53
2022-12-04T00:51:36.821Z,50.97
2022-12-04T00:54:05.435Z,50.77
2022-12-04T00:56:33.671Z,49.93
2022-12-04T00:59:03.533Z,51.70
2022-12-04T01:01:32.375Z,53.03
2022-12-04T01:04:00.835Z,50.97
2022-12-04T01:06:32.117Z,56.00
2022-12-04T01:09:03.574Z,49.17
2022-12-04T01:11:32.593Z,51.37
2022-12-04T01:14:03.158Z,52.90
2022-12-04T01:16:34.969Z,50.97
2022-12-04T01:19:04.091Z,51.63
2022-12-04T01:21:32.690Z,51.93
2022-12-04T01:24:01.223Z,53.87
2022-12-04T01:26:29.649Z,54.47
2022-12-04T01:28:58.485Z,51.40
2022-12-04T01:31:28.831Z,57.57
2022-12-04T01:33:57.248Z,53.17
2022-12-04T01:36:28.100Z,55.17
2022-12-04T01:38:57.326Z,54.60
2022-12-04T01:41:29.169Z,52.13
2022-12-04T01:44:17.924Z,57.50
2022-12-04T01:46:53.673Z,53.80
2022-12-04T01:49:30.453Z,48.90
2022-12-04T01:52:05.721Z,58.23
2022-12-04T01:54:40.474Z,57.30
2022-12-04T01:57:16.046Z,58.30
2022-12-04T01:59:51.122Z,56.73
2022-12-04T02:02:27.874Z,55.30
2022-12-04T02:04:57.510Z,55.50
2022-12-04T02:07:26.139Z,58.33
2022-12-04T02:09:56.293Z,61.07
2022-12-04T02:12:36.395Z,56.83
2022-12-04T02:15:17.579Z,60.53
2022-12-04T02:17:57.333Z,57.63
2022-12-04T02:20:37.890Z,54.10
2022-12-04T02:23:44.983Z,54.60
2022-12-04T02:26:31.996Z,56.57
2022-12-04T02:29:11.018Z,58.33
2022-12-04T02:31:47.432Z,55.13
2022-12-04T02:34:26.927Z,61.47
2022-12-04T02:37:03.541Z,57.47
2022-12-04T02:39:41.270Z,57.00
2022-12-04T02:42:18.809Z,57.53
2022-12-04T02:44:57.048Z,58.93
2022-12-04T02:47:27.850Z,58.83
2022-12-04T02:50:01.298Z,62.60
2022-12-04T02:52:35.011Z,57.07
2022-12-04T02:55:09.372Z,53.57
2022-12-04T02:57:45.446Z,62.80
2022-12-04T03:00:17.524Z,57.63
2022-12-04T03:02:54.333Z,58.80
2022-12-04T03:05:30.526Z,59.23
2022-12-04T03:08:05.664Z,57.37
2022-12-04T03:10:41.247Z,57.93
2022-12-04T03:13:14.936Z,59.20
2022-12-04T03:15:49.304Z,55.43
2022-12-04T03:18:23.636Z,56.53
2022-12-04T03:21:00.759Z,55.47
2022-12-04T03:23:35.785Z,58.50
2022-12-04T03:26:13.772Z,59.40
2022-12-04T03:28:53.899Z,51.53
2022-12-04T03:31:36.172Z,56.43
2022-12-04T03:34:08.733Z,56.40
2022-12-04T03:36:46.278Z,56.37
2022-12-04T03:39:24.051Z,58.37
2022-12-04T03:42:01.189Z,57.10
2022-12-04T03:44:39.267Z,55.20
2022-12-04T03:47:15.705Z,56.10
2022-12-04T03:49:52.048Z,54.30
2022-12-04T03:52:30.909Z,56.03
2022-12-04T03:55:05.362Z,53.03
2022-12-04T03:57:40.591Z,58.07
2022-12-04T04:00:14.616Z,56.87
2022-12-04T04:02:56.133Z,55.20
2022-12-04T04:05:28.525Z,56.30
2022-12-04T04:08:21.919Z,55.30
2022-12-04T04:10:52.608Z,56.73
2022-12-04T04:13:46.272Z,54.10
2022-12-04T04:16:37.074Z,59.20
2022-12-04T04:19:27.395Z,54.60
2022-12-04T04:22:16.993Z,52.17
2022-12-04T04:24:49.730Z,55.83
2022-12-04T04:27:18.139Z,60.80
2022-12-04T04:29:52.028Z,57.13
2022-12-04T04:32:31.522Z,55.70
2022-12-04T04:35:15.384Z,54.10
2022-12-04T04:37:55.999Z,59.50
2022-12-04T04:40:37.329Z,58.80
2022-12-04T04:43:12.764Z,59.17
2022-12-04T04:45:48.364Z,58.00
2022-12-04T04:48:24.640Z,56.77
2022-12-04T04:50:56.205Z,52.47
2022-12-04T04:53:31.105Z,57.03
2022-12-04T04:56:00.626Z,59.20
2022-12-04T04:58:28.941Z,56.63
2022-12-04T05:01:05.537Z,59.40
2022-12-04T05:03:34.096Z,55.43
2022-12-04T05:06:03.769Z,56.63
2022-12-04T05:08:32.117Z,58.30
2022-12-04T05:11:00.604Z,58.60
2022-12-04T05:13:30.603Z,57.97
2022-12-04T05:16:01.113Z,58.23
2022-12-04T05:18:30.645Z,58.47
2022-12-04T05:20:58.304Z,59.13
2022-12-04T05:23:27.923Z,56.13
2022-12-04T05:26:01.609Z,56.53
2022-12-04T05:28:30.020Z,58.93
2022-12-04T05:30:58.560Z,56.00
2022-12-04T05:33:26.974Z,59.40
2022-12-04T05:35:59.793Z,51.47
2022-12-04T05:38:29.843Z,55.50
2022-12-04T05:40:59.846Z,55.73
2022-12-04T05:43:28.909Z,51.60
2022-12-04T05:46:01.683Z,54.63
2022-12-04T05:48:30.109Z,52.83
2022-12-04T05:50:58.506Z,60.37
2022-12-04T05:53:26.745Z,54.67
2022-12-04T05:56:02.522Z,59.53
2022-12-04T05:58:31.181Z,58.40
2022-12-04T06:00:59.500Z,56.63
2022-12-04T06:03:28.036Z,54.63
2022-12-04T06:05:56.373Z,54.17
2022-12-04T06:08:24.656Z,54.63
2022-12-04T06:10:53.015Z,60.93
2022-12-04T06:13:22.605Z,55.57
2022-12-04T06:15:50.966Z,61.73
2022-12-04T06:18:19.262Z,56.77
2022-12-04T06:20:47.559Z,59.20
2022-12-04T06:23:15.868Z,52.70
2022-12-04T06:25:44.179Z,59.03
2022-12-04T06:28:12.400Z,56.87
2022-12-04T06:30:42.000Z,67.57
2022-12-04T06:33:10.331Z,62.03
2022-12-04T06:35:38.633Z,65.80
2022-12-04T06:38:07.939Z,59.67
2022-12-04T06:40:36.145Z,62.57
2022-12-04T06:43:05.341Z,64.00
2022-12-04T06:45:33.854Z,69.03
2022-12-04T06:48:03.494Z,69.77
2022-12-04T06:50:31.719Z,65.23
2022-12-04T06:53:03.595Z,63.63
2022-12-04T06:55:36.272Z,63.13
2022-12-04T06:58:04.545Z,66.53
2022-12-04T07:00:32.813Z,65.77
2022-12-04T07:03:01.197Z,61.13
2022-12-04T07:05:30.829Z,61.73
2022-12-04T07:07:59.118Z,64.33
2022-12-04T07:10:27.702Z,65.17
2022-12-04T07:12:55.939Z,65.60
2022-12-04T07:15:24.199Z,58.17
2022-12-04T07:17:52.430Z,63.67
2022-12-04T07:20:20.797Z,68.90
2022-12-04T07:22:50.373Z,69.57
2022-12-04T07:25:19.711Z,67.80
2022-12-04T07:27:47.990Z,62.07
2022-12-04T07:30:16.825Z,64.40
2022-12-04T07:32:45.162Z,64.53
2022-12-04T07:35:13.789Z,66.63
2022-12-04T07:37:42.073Z,66.13
2022-12-04T07:40:13.834Z,66.60
2022-12-04T07:42:42.112Z,68.07
2022-12-04T07:45:11.528Z,66.37
2022-12-04T07:47:39.859Z,62.77
2022-12-04T07:50:09.301Z,63.63
2022-12-04T07:52:38.446Z,71.90
2022-12-04T07:55:08.513Z,69.43
2022-12-04T07:57:38.190Z,67.37
2022-12-04T08:00:08.419Z,64.50
2022-12-04T08:02:40.326Z,60.07
2022-12-04T08:05:09.188Z,66.90
2022-12-04T08:07:37.533Z,68.73
2022-12-04T08:10:07.675Z,66.20
2022-12-04T08:12:37.295Z,73.57
2022-12-04T08:15:06.756Z,65.70
2022-12-04T08:17:35.054Z,67.63
2022-12-04T08:20:03.277Z,63.03
2022-12-04T08:22:31.549Z,66.03
2022-12-04T08:24:59.763Z,73.17
2022-12-04T08:27:27.984Z,67.23
2022-12-04T08:29:57.813Z,72.97
2022-12-04T08:32:26.517Z,72.07
2022-12-04T08:34:57.798Z,69.73
2022-12-04T08:37:27.563Z,64.03
2022-12-04T08:39:56.054Z,76.60
2022-12-04T08:42:24.437Z,73.97
2022-12-04T08:44:52.683Z,70.73
2022-12-04T08:47:22.309Z,67.17
2022-12-04T08:49:50.638Z,70.67
2022-12-04T08:52:19.081Z,65.50
2022-12-04T08:54:47.512Z,73.83
2022-12-04T08:57:15.749Z,67.67
2022-12-04T08:59:43.974Z,67.20
2022-12-04T09:02:12.939Z,64.77
2022-12-04T09:04:42.560Z,66.63
2022-12-04T09:07:11.032Z,70.43
2022-12-04T09:09:43.541Z,64.10
2022-12-04T09:12:14.872Z,74.27
2022-12-04T09:14:43.129Z,63.43
2022-12-04T09:17:11.545Z,65.07
2022-12-04T09:19:39.784Z,63.57
2022-12-04T09:22:09.392Z,57.97
2022-12-04T09:24:37.786Z,68.10
2022-12-04T09:27:11.290Z,58.10
2022-12-04T09:29:42.630Z,62.40
2022-12-04T09:32:10.898Z,65.03
2022-12-04T09:34:39.268Z,66.87
2022-12-04T09:37:08.981Z,67.03
2022-12-04T09:39:37.412Z,59.50
2022-12-04T09:42:30.101Z,60.73
2022-12-04T09:45:08.458Z,63.10
2022-12-04T09:47:43.822Z,65.43
2022-12-04T09:50:21.548Z,62.43
2022-12-04T09:53:00.633Z,62.43
2022-12-04T09:55:35.832Z,65.77
2022-12-04T09:58:12.182Z,63.23
2022-12-04T10:00:45.415Z,59.63
2022-12-04T10:03:18.995Z,65.47
2022-12-04T10:05:58.945Z,60.77
2022-12-04T10:08:31.577Z,55.23
2022-12-04T10:11:13.471Z,59.77
2022-12-04T10:14:11.519Z,60.13
2022-12-04T10:16:58.569Z,60.97
2022-12-04T10:19:37.958Z,53.77
2022-12-04T10:22:17.768Z,55.70
2022-12-04T10:24:53.592Z,53.60
2022-12-04T10:27:26.848Z,54.30
2022-12-04T10:30:03.236Z,52.80
2022-12-04T10:32:34.531Z,52.20
2022-12-04T10:35:20.558Z,55.50
2022-12-04T10:37:55.137Z,59.47
2022-12-04T10:40:33.599Z,59.33
2022-12-04T10:43:15.136Z,53.50
2022-12-04T10:45:44.055Z,59.73
2022-12-04T10:48:24.187Z,57.67
2022-12-04T10:50:52.593Z,55.70
2022-12-04T10:53:31.916Z,53.47
2022-12-04T10:56:13.349Z,53.93
2022-12-04T10:58:42.214Z,56.10
2022-12-04T11:01:15.498Z,58.93
2022-12-04T11:03:48.434Z,51.40
2022-12-04T11:06:16.929Z,52.67
2022-12-04T11:08:51.874Z,54.00
2022-12-04T11:11:28.910Z,55.27
2022-12-04T11:14:13.817Z,50.57
2022-12-04T11:16:45.478Z,55.67
2022-12-04T11:19:27.257Z,56.33
2022-12-04T11:21:59.487Z,56.30
2022-12-04T11:24:33.176Z,57.33
2022-12-04T11:27:05.718Z,54.17
2022-12-04T11:29:39.143Z,53.40
2022-12-04T11:32:18.121Z,52.37
2022-12-04T11:34:47.439Z,57.70
2022-12-04T11:37:23.465Z,47.73
2022-12-04T11:39:53.506Z,49.87
2022-12-04T11:42:28.583Z,52.23
2022-12-04T11:44:59.211Z,49.50
2022-12-04T11:47:31.596Z,52.10
2022-12-04T11:50:27.586Z,53.93
2022-12-04T11:53:11.290Z,52.90
2022-12-04T11:56:11.289Z,51.40
2022-12-04T11:59:13.537Z,51.77
2022-12-04T12:01:51.002Z,41.67
2022-12-04T12:05:04.349Z,50.90
2022-12-04T12:07:58.962Z,51.63
2022-12-04T12:10:44.608Z,49.57
2022-12-04T12:13:26.874Z,51.33
2022-12-04T12:16:10.698Z,51.30
2022-12-04T12:19:09.891Z,48.43
2022-12-04T12:21:46.647Z,46.87
2022-12-04T12:24:27.931Z,50.83
2022-12-04T12:27:17.142Z,53.87
2022-12-04T12:30:03.832Z,46.23
2022-12-04T12:32:54.403Z,49.83
2022-12-04T12:35:30.538Z,47.03
2022-12-04T12:38:03.819Z,48.77
2022-12-04T12:40:38.355Z,51.60
2022-12-04T12:43:14.691Z,46.77
2022-12-04T12:45:53.792Z,45.30
2022-12-04T12:48:33.376Z,49.43
2022-12-04T12:51:29.105Z,48.13
2022-12-04T12:54:14.338Z,44.87
2022-12-04T12:56:50.752Z,48.30
2022-12-04T12:59:23.506Z,49.63
2022-12-04T13:02:01.181Z,42.40
2022-12-04T13:04:41.507Z,41.30
2022-12-04T13:07:14.011Z,39.53
2022-12-04T13:09:49.467Z,42.83
2022-12-04T13:12:21.636Z,43.33
2022-12-04T13:14:50.473Z,49.57
2022-12-04T13:17:26.668Z,44.00
2022-12-04T13:20:03.065Z,43.13
2022-12-04T13:22:51.086Z,42.60
2022-12-04T13:25:49.287Z,44.97
2022-12-04T13:28:37.975Z,41.67
2022-12-04T13:31:24.994Z,42.93
2022-12-04T13:34:19.010Z,39.57
2022-12-04T13:37:22.756Z,39.83
2022-12-04T13:40:31.553Z,40.57
2022-12-04T13:43:25.797Z,44.33
2022-12-04T13:45:57.772Z,40.30
2022-12-04T13:48:36.395Z,40.93
2022-12-04T13:51:36.124Z,35.77
2022-12-04T13:54:29.783Z,41.57
2022-12-04T13:57:17.289Z,36.50
2022-12-04T13:59:47.499Z,40.63
2022-12-04T14:02:37.681Z,38.03
2022-12-04T14:05:10.222Z,42.90
2022-12-04T14:07:43.659Z,36.20
2022-12-04T14:10:30.605Z,38.50
2022-12-04T14:13:03.497Z,35.57
2022-12-04T14:15:35.544Z,34.73
2022-12-04T14:18:18.508Z,46.87
2022-12-04T14:20:57.951Z,38.00
2022-12-04T14:23:36.211Z,40.27
2022-12-04T14:26:06.764Z,37.00
2022-12-04T14:28:45.082Z,44.07
2022-12-04T14:31:35.418Z,39.13
2022-12-04T14:34:21.156Z,40.33
2022-12-04T14:36:53.108Z,39.83
2022-12-04T14:39:28.211Z,41.27
2022-12-04T14:42:14.730Z,39.23
2022-12-04T14:44:46.372Z,40.70
2022-12-04T14:47:28.873Z,50.33
2022-12-04T14:50:17.518Z,43.00
2022-12-04T14:52:53.645Z,46.10
2022-12-04T14:55:33.803Z,47.33
2022-12-04T14:58:27.172Z,42.17
2022-12-04T15:00:59.887Z,48.93
2022-12-04T15:03:30.725Z,38.20
2022-12-04T15:06:09.510Z,42.87
2022-12-04T15:08:37.849Z,46.87
2022-12-04T15:11:25.758Z,44.63
2022-12-04T15:13:55.497Z,50.50
2022-12-04T15:16:24.366Z,52.90
2022-12-04T15:18:57.466Z,52.63
2022-12-04T15:21:35.340Z,51.70
2022-12-04T15:24:09.072Z,52.40
2022-12-04T15:26:39.783Z,48.53
2022-12-04T15:29:18.852Z,49.87
2022-12-04T15:31:56.517Z,45.70
2022-12-04T15:34:35.399Z,51.77
2022-12-04T15:37:10.061Z,48.53
2022-12-04T15:39:38.852Z,49.30
2022-12-04T15:42:17.378Z,48.63
2022-12-04T15:45:00.790Z,54.27
2022-12-04T15:47:31.185Z,47.20
2022-12-04T15:50:11.078Z,49.10
2022-12-04T15:52:49.993Z,46.50
2022-12-04T15:55:20.783Z,49.67
2022-12-04T15:57:55.513Z,50.27
2022-12-04T16:00:30.835Z,49.73
2022-12-04T16:03:00.761Z,48.47
2022-12-04T16:05:35.333Z,40.83
2022-12-04T16:08:24.627Z,48.40
2022-12-04T16:11:05.100Z,50.37
2022-12-04T16:13:37.254Z,55.87
2022-12-04T16:16:13.245Z,52.57
2022-12-04T16:18:43.124Z,40.93
2022-12-04T16:21:17.372Z,48.47
2022-12-04T16:23:46.228Z,52.27
2022-12-04T16:26:16.638Z,48.90
2022-12-04T16:28:45.645Z,50.40
2022-12-04T16:31:17.804Z,49.60
2022-12-04T16:33:46.488Z,49.23
2022-12-04T16:36:14.836Z,43.83
2022-12-04T16:38:43.227Z,48.30
2022-12-04T16:41:16.084Z,48.93
2022-12-04T16:43:44.732Z,48.57
2022-12-04T16:46:17.445Z,45.17
2022-12-04T16:48:45.904Z,50.63
2022-12-04T16:51:18.437Z,48.53
2022-12-04T16:53:47.162Z,49.13
2022-12-04T16:56:15.492Z,46.77
2022-12-04T16:58:44.497Z,49.37
2022-12-04T17:01:22.813Z,42.53
2022-12-04T17:03:51.856Z,51.83
2022-12-04T17:06:20.503Z,43.97
2022-12-04T17:08:48.757Z,45.20
2022-12-04T17:11:18.665Z,48.63
2022-12-04T17:13:47.013Z,48.77
2022-12-04T17:16:19.717Z,48.10
2022-12-04T17:18:48.332Z,45.37
2022-12-04T17:21:16.733Z,47.10
2022-12-04T17:23:45.755Z,45.03
2022-12-04T17:26:16.106Z,47.73
2022-12-04T17:28:44.717Z,39.67
2022-12-04T17:31:20.792Z,48.73
2022-12-04T17:33:49.573Z,48.07
2022-12-04T17:36:21.395Z,47.10
2022-12-04T17:38:54.332Z,53.80
2022-12-04T17:41:22.816Z,41.33
2022-12-04T17:43:51.525Z,44.50
2022-12-04T17:46:24.450Z,46.07
2022-12-04T17:48:56.217Z,45.47
2022-12-04T17:51:26.351Z,42.50
2022-12-04T17:53:54.840Z,48.10
2022-12-04T17:56:25.092Z,36.63
2022-12-04T17:58:54.325Z,36.20
2022-12-04T18:01:26.818Z,42.50
2022-12-04T18:03:57.555Z,41.97
2022-12-04T18:06:30.186Z,39.17
2022-12-04T18:08:59.146Z,39.60
2022-12-04T18:11:30.068Z,40.63
2022-12-04T18:14:01.359Z,40.23
2022-12-04T18:16:34.989Z,36.30
2022-12-04T18:19:05.051Z,37.90
2022-12-04T18:21:34.897Z,33.90
2022-12-04T18:24:05.249Z,29.00
2022-12-04T18:26:36.108Z,30.40
2022-12-04T18:29:04.735Z,35.37
2022-12-04T18:31:34.930Z,34.63
2022-12-04T18:34:03.307Z,37.70
2022-12-04T18:36:33.009Z,38.50
2022-12-04T18:39:03.930Z,35.00
2022-12-04T18:41:33.072Z,36.33
2022-12-04T18:44:02.881Z,33.67
2022-12-04T18:46:32.857Z,38.77
2022-12-04T18:49:03.236Z,36.30
2022-12-04T18:51:34.616Z,35.10
2022-12-04T18:54:05.816Z,35.20
2022-12-04T18:56:36.335Z,36.97
2022-12-04T18:59:08.026Z,32.43
2022-12-04T19:01:36.739Z,33.80
2022-12-04T19:04:10.190Z,35.53
2022-12-04T19:06:41.270Z,37.07
2022-12-04T19:09:13.037Z,33.37
2022-12-04T19:11:42.309Z,36.77
2022-12-04T19:14:22.490Z,37.23
2022-12-04T19:16:52.389Z,35.57
2022-12-04T19:19:22.079Z,33.00
2022-12-04T19:21:50.394Z,35.60
2022-12-04T19:24:19.010Z,36.73
2022-12-04T19:26:47.953Z,34.00
2022-12-04T19:29:16.337Z,35.03
2022-12-04T19:31:44.853Z,35.03
2022-12-04T19:34:13.276Z,39.40
2022-12-04T19:36:45.319Z,37.03
2022-12-04T19:39:13.750Z,39.10
2022-12-04T19:41:42.091Z,34.77
2022-12-04T19:44:46.828Z,38.20
2022-12-04T19:47:00.284Z,35.73
2022-12-04T19:49:29.003Z,33.57
2022-12-04T19:51:58.743Z,33.13
2022-12-04T19:54:28.076Z,35.87
2022-12-04T19:56:56.422Z,36.23
2022-12-04T19:59:24.956Z,34.70
2022-12-04T20:01:53.570Z,36.33
2022-12-04T20:04:22.056Z,35.93
2022-12-04T20:06:50.390Z,39.47
2022-12-04T20:09:23.169Z,35.50
2022-12-04T20:11:52.262Z,36.27
2022-12-04T20:14:20.686Z,38.60
2022-12-04T20:16:49.059Z,37.50
2022-12-04T20:19:20.057Z,36.30
2022-12-04T20:21:48.484Z,36.13
2022-12-04T20:24:18.574Z,38.60
2022-12-04T20:26:48.622Z,36.73
2022-12-04T20:29:19.057Z,36.90
2022-12-04T20:31:48.499Z,35.80
2022-12-04T20:34:20.046Z,35.23
2022-12-04T20:36:49.819Z,37.07
2022-12-04T20:39:20.416Z,35.87
2022-12-04T20:41:50.314Z,44.70
2022-12-04T20:44:20.428Z,38.03
2022-12-04T20:46:51.993Z,39.03
2022-12-04T20:49:22.324Z,41.17
2022-12-04T20:51:52.878Z,39.70
2022-12-04T20:54:23.809Z,37.63
2022-12-04T20:56:54.217Z,41.07
2022-12-04T20:59:25.167Z,40.63
2022-12-04T21:01:54.710Z,38.40
2022-12-04T21:04:23.975Z,37.20
2022-12-04T21:06:52.408Z,34.37
2022-12-04T21:09:26.669Z,49.57
2022-12-04T21:11:56.934Z,37.77
2022-12-04T21:14:46.528Z,39.60
2022-12-04T21:17:18.789Z,35.53
2022-12-04T21:19:49.512Z,34.70
2022-12-04T21:22:20.100Z,37.47
2022-12-04T21:24:49.139Z,36.13
2022-12-04T21:27:21.239Z,38.07
2022-12-04T21:29:50.521Z,41.87
2022-12-04T21:32:20.672Z,39.83
2022-12-04T21:34:49.370Z,44.37
2022-12-04T21:37:17.712Z,47.83
2022-12-04T21:39:46.103Z,48.63
2022-12-04T21:42:32.938Z,43.50
2022-12-04T21:45:05.987Z,42.07
2022-12-04T21:47:36.317Z,45.07
2022-12-04T21:50:06.356Z,47.53
2022-12-04T21:52:34.783Z,44.73
2022-12-04T21:55:03.317Z,46.47
2022-12-04T21:57:31.802Z,49.17
2022-12-04T22:00:00.419Z,47.20
2022-12-04T22:02:30.425Z,50.67
2022-12-04T22:04:58.727Z,48.33
2022-12-04T22:07:27.092Z,51.77
2022-12-04T22:09:55.632Z,47.73
2022-12-04T22:12:48.585Z,44.33
2022-12-04T22:15:13.273Z,46.23
2022-12-04T22:17:43.127Z,41.57
2022-12-04T22:20:11.978Z,40.47
2022-12-04T22:22:40.292Z,42.70
2022-12-04T22:25:09.657Z,44.43
2022-12-04T22:27:38.008Z,46.03
2022-12-04T22:30:08.710Z,40.30
2022-12-04T22:32:37.089Z,43.40
2022-12-04T22:35:07.748Z,44.27
2022-12-04T22:37:41.094Z,40.90
2022-12-04T22:40:14.643Z,41.53
2022-12-04T22:42:43.706Z,42.67
2022-12-04T22:45:12.903Z,48.80
2022-12-04T22:47:41.755Z,44.20
2022-12-04T22:50:12.847Z,43.57
2022-12-04T22:52:41.167Z,43.13
2022-12-04T22:55:10.085Z,36.03
2022-12-04T22:57:38.368Z,43.33
2022-12-04T23:00:09.451Z,45.80
2022-12-04T23:02:38.001Z,39.40
2022-12-04T23:05:06.683Z,40.17
2022-12-04T23:07:37.326Z,37.17
2022-12-04T23:10:09.091Z,37.00
2022-12-04T23:12:37.458Z,42.10
2022-12-04T23:15:07.334Z,45.87
2022-12-04T23:17:35.995Z,43.90
2022-12-04T23:20:05.256Z,41.63
2022-12-04T23:22:33.981Z,45.23
2022-12-04T23:25:03.999Z,44.97
2022-12-04T23:27:32.867Z,40.40
2022-12-04T23:30:01.248Z,41.53
2022-12-04T23:32:30.990Z,42.20
2022-12-04T23:34:59.365Z,41.43
2022-12-04T23:37:27.658Z,40.53
2022-12-04T23:39:56.418Z,37.17
2022-12-04T23:42:26.418Z,39.33
2022-12-04T23:44:54.730Z,37.93
2022-12-04T23:47:23.161Z,38.57
2022-12-04T23:49:51.887Z,39.07
2022-12-04T23:52:20.281Z,36.90
2022-12-04T23:54:48.589Z,38.23
2022-12-04T23:57:16.961Z,39.10
2022-12-04T23:59:46.631Z,36.23
